sensor_id;sensor_type;location;lat;lon;timestamp;P1;durP1;ratioP1;P2;durP2;ratioP2
44204;SDS011;30163;42.698;23.344;2023-08-06T00:00:08;11.88;;;6.45;;
44204;SDS011;30163;42.698;23.344;2023-08-06T00:02:33;11.45;;;7.00;;
44204;SDS011;30163;42.698;23.344;2023-08-06T00:04:59;9.50;;;5.70;;
44204;SDS011;30163;42.698;23.344;2023-08-06T00:07:24;10.82;;;6.20;;
44204;SDS011;30163;42.698;23.344;2023-08-06T00:09:50;14.40;;;7.60;;
44204;SDS011;30163;42.698;23.344;2023-08-06T00:12:15;19.85;;;7.25;;
44204;SDS011;30163;42.698;23.344;2023-08-06T00:14:40;18.13;;;6.70;;
44204;SDS011;30163;42.698;23.344;2023-08-06T00:17:06;8.95;;;6.22;;
44204;SDS011;30163;42.698;23.344;2023-08-06T00:19:32;15.00;;;6.88;;
44204;SDS011;30163;42.698;23.344;2023-08-06T00:21:57;13.90;;;5.63;;
44204;SDS011;30163;42.698;23.344;2023-08-06T00:24:22;19.88;;;6.85;;
44204;SDS011;30163;42.698;23.344;2023-08-06T00:26:48;10.15;;;6.30;;
44204;SDS011;30163;42.698;23.344;2023-08-06T00:29:13;12.98;;;7.43;;
44204;SDS011;30163;42.698;23.344;2023-08-06T00:31:39;16.88;;;8.60;;
44204;SDS011;30163;42.698;23.344;2023-08-06T00:34:04;21.00;;;8.50;;
44204;SDS011;30163;42.698;23.344;2023-08-06T00:36:30;17.35;;;10.00;;
44204;SDS011;30163;42.698;23.344;2023-08-06T00:38:55;15.82;;;9.93;;
44204;SDS011;30163;42.698;23.344;2023-08-06T00:41:20;23.58;;;9.50;;
44204;SDS011;30163;42.698;23.344;2023-08-06T00:43:46;19.10;;;11.45;;
44204;SDS011;30163;42.698;23.344;2023-08-06T00:46:11;31.02;;;18.65;;
44204;SDS011;30163;42.698;23.344;2023-08-06T00:48:37;23.92;;;15.52;;
44204;SDS011;30163;42.698;23.344;2023-08-06T00:51:02;27.20;;;14.70;;
44204;SDS011;30163;42.698;23.344;2023-08-06T00:53:28;34.45;;;16.25;;
44204;SDS011;30163;42.698;23.344;2023-08-06T00:55:54;21.60;;;14.60;;
44204;SDS011;30163;42.698;23.344;2023-08-06T00:58:19;24.83;;;16.40;;
44204;SDS011;30163;42.698;23.344;2023-08-06T01:00:45;26.48;;;14.95;;
44204;SDS011;30163;42.698;23.344;2023-08-06T01:03:10;23.00;;;13.98;;
44204;SDS011;30163;42.698;23.344;2023-08-06T01:05:36;21.85;;;13.73;;
44204;SDS011;30163;42.698;23.344;2023-08-06T01:16:18;17.60;;;11.00;;
44204;SDS011;30163;42.698;23.344;2023-08-06T01:18:47;17.75;;;11.90;;
44204;SDS011;30163;42.698;23.344;2023-08-06T01:21:14;18.75;;;11.85;;
44204;SDS011;30163;42.698;23.344;2023-08-06T01:23:44;16.55;;;10.68;;
44204;SDS011;30163;42.698;23.344;2023-08-06T01:32:04;18.45;;;9.40;;
44204;SDS011;30163;42.698;23.344;2023-08-06T01:34:31;17.98;;;9.73;;
44204;SDS011;30163;42.698;23.344;2023-08-06T01:36:58;15.20;;;9.15;;
44204;SDS011;30163;42.698;23.344;2023-08-06T01:39:24;15.93;;;8.52;;
44204;SDS011;30163;42.698;23.344;2023-08-06T01:41:50;16.15;;;8.07;;
44204;SDS011;30163;42.698;23.344;2023-08-06T01:44:15;16.23;;;8.90;;
44204;SDS011;30163;42.698;23.344;2023-08-06T01:46:41;13.90;;;7.47;;
44204;SDS011;30163;42.698;23.344;2023-08-06T01:49:06;14.05;;;7.82;;
44204;SDS011;30163;42.698;23.344;2023-08-06T01:51:32;12.85;;;8.50;;
44204;SDS011;30163;42.698;23.344;2023-08-06T01:53:57;15.13;;;9.20;;
44204;SDS011;30163;42.698;23.344;2023-08-06T01:56:23;15.70;;;8.68;;
44204;SDS011;30163;42.698;23.344;2023-08-06T01:58:48;16.17;;;9.40;;
44204;SDS011;30163;42.698;23.344;2023-08-06T02:01:13;12.70;;;8.70;;
44204;SDS011;30163;42.698;23.344;2023-08-06T02:03:39;11.95;;;7.63;;
44204;SDS011;30163;42.698;23.344;2023-08-06T02:06:04;12.35;;;7.57;;
44204;SDS011;30163;42.698;23.344;2023-08-06T02:08:30;12.77;;;7.10;;
44204;SDS011;30163;42.698;23.344;2023-08-06T02:10:55;12.52;;;7.75;;
44204;SDS011;30163;42.698;23.344;2023-08-06T02:13:21;14.32;;;7.63;;
44204;SDS011;30163;42.698;23.344;2023-08-06T02:15:46;15.93;;;7.38;;
44204;SDS011;30163;42.698;23.344;2023-08-06T02:18:15;9.77;;;6.90;;
44204;SDS011;30163;42.698;23.344;2023-08-06T02:20:41;12.00;;;6.63;;
44204;SDS011;30163;42.698;23.344;2023-08-06T02:23:06;11.60;;;7.00;;
44204;SDS011;30163;42.698;23.344;2023-08-06T02:25:32;10.48;;;6.82;;
44204;SDS011;30163;42.698;23.344;2023-08-06T02:27:57;11.25;;;6.88;;
44204;SDS011;30163;42.698;23.344;2023-08-06T02:30:23;13.50;;;6.50;;
44204;SDS011;30163;42.698;23.344;2023-08-06T02:32:48;17.83;;;7.38;;
44204;SDS011;30163;42.698;23.344;2023-08-06T02:35:13;21.02;;;7.50;;
44204;SDS011;30163;42.698;23.344;2023-08-06T02:37:39;27.65;;;5.40;;
44204;SDS011;30163;42.698;23.344;2023-08-06T02:40:04;18.38;;;6.13;;
44204;SDS011;30163;42.698;23.344;2023-08-06T02:42:30;16.38;;;7.78;;
44204;SDS011;30163;42.698;23.344;2023-08-06T02:44:55;16.92;;;8.30;;
44204;SDS011;30163;42.698;23.344;2023-08-06T02:47:21;14.80;;;7.40;;
44204;SDS011;30163;42.698;23.344;2023-08-06T02:49:46;14.93;;;7.45;;
44204;SDS011;30163;42.698;23.344;2023-08-06T02:52:12;17.70;;;8.82;;
44204;SDS011;30163;42.698;23.344;2023-08-06T02:54:37;15.25;;;8.05;;
44204;SDS011;30163;42.698;23.344;2023-08-06T02:57:03;26.23;;;9.23;;
44204;SDS011;30163;42.698;23.344;2023-08-06T02:59:30;17.55;;;8.48;;
44204;SDS011;30163;42.698;23.344;2023-08-06T03:01:55;18.88;;;8.70;;
44204;SDS011;30163;42.698;23.344;2023-08-06T03:04:21;17.15;;;9.63;;
44204;SDS011;30163;42.698;23.344;2023-08-06T03:06:46;21.23;;;10.57;;
44204;SDS011;30163;42.698;23.344;2023-08-06T03:09:11;22.05;;;10.13;;
44204;SDS011;30163;42.698;23.344;2023-08-06T03:11:37;18.23;;;9.95;;
44204;SDS011;30163;42.698;23.344;2023-08-06T03:14:02;20.58;;;9.90;;
44204;SDS011;30163;42.698;23.344;2023-08-06T03:16:27;17.60;;;9.95;;
44204;SDS011;30163;42.698;23.344;2023-08-06T03:18:53;22.40;;;10.65;;
44204;SDS011;30163;42.698;23.344;2023-08-06T03:21:18;19.85;;;10.02;;
44204;SDS011;30163;42.698;23.344;2023-08-06T03:23:46;20.63;;;10.77;;
44204;SDS011;30163;42.698;23.344;2023-08-06T03:26:13;28.02;;;13.05;;
44204;SDS011;30163;42.698;23.344;2023-08-06T03:28:39;25.30;;;14.07;;
44204;SDS011;30163;42.698;23.344;2023-08-06T03:31:04;24.58;;;14.40;;
44204;SDS011;30163;42.698;23.344;2023-08-06T03:33:30;29.73;;;14.45;;
44204;SDS011;30163;42.698;23.344;2023-08-06T03:35:56;22.63;;;14.40;;
44204;SDS011;30163;42.698;23.344;2023-08-06T03:38:21;26.17;;;13.52;;
44204;SDS011;30163;42.698;23.344;2023-08-06T03:40:47;24.73;;;12.88;;
44204;SDS011;30163;42.698;23.344;2023-08-06T03:43:13;24.35;;;11.95;;
44204;SDS011;30163;42.698;23.344;2023-08-06T03:45:40;20.40;;;9.90;;
44204;SDS011;30163;42.698;23.344;2023-08-06T03:48:05;18.63;;;11.18;;
44204;SDS011;30163;42.698;23.344;2023-08-06T03:50:31;18.77;;;10.57;;
44204;SDS011;30163;42.698;23.344;2023-08-06T03:52:56;20.23;;;10.13;;
44204;SDS011;30163;42.698;23.344;2023-08-06T03:55:21;16.95;;;10.52;;
44204;SDS011;30163;42.698;23.344;2023-08-06T03:57:47;19.20;;;11.18;;
44204;SDS011;30163;42.698;23.344;2023-08-06T04:00:12;22.63;;;10.60;;
44204;SDS011;30163;42.698;23.344;2023-08-06T04:02:38;19.75;;;11.85;;
44204;SDS011;30163;42.698;23.344;2023-08-06T04:05:04;22.88;;;13.13;;
44204;SDS011;30163;42.698;23.344;2023-08-06T04:07:29;21.20;;;12.52;;
44204;SDS011;30163;42.698;23.344;2023-08-06T04:09:56;24.38;;;12.45;;
44204;SDS011;30163;42.698;23.344;2023-08-06T04:12:23;20.05;;;11.35;;
44204;SDS011;30163;42.698;23.344;2023-08-06T04:14:49;20.83;;;11.82;;
44204;SDS011;30163;42.698;23.344;2023-08-06T04:17:15;17.90;;;10.98;;
44204;SDS011;30163;42.698;23.344;2023-08-06T04:19:40;21.73;;;10.30;;
44204;SDS011;30163;42.698;23.344;2023-08-06T04:22:06;23.00;;;11.40;;
44204;SDS011;30163;42.698;23.344;2023-08-06T04:24:31;17.17;;;9.13;;
44204;SDS011;30163;42.698;23.344;2023-08-06T04:26:57;15.70;;;8.80;;
44204;SDS011;30163;42.698;23.344;2023-08-06T04:29:22;20.13;;;8.70;;
44204;SDS011;30163;42.698;23.344;2023-08-06T04:31:48;17.58;;;10.00;;
44204;SDS011;30163;42.698;23.344;2023-08-06T04:34:13;16.27;;;9.75;;
44204;SDS011;30163;42.698;23.344;2023-08-06T04:36:38;13.85;;;10.23;;
44204;SDS011;30163;42.698;23.344;2023-08-06T04:39:04;15.43;;;9.63;;
44204;SDS011;30163;42.698;23.344;2023-08-06T04:41:29;13.23;;;9.25;;
44204;SDS011;30163;42.698;23.344;2023-08-06T04:43:56;18.73;;;9.98;;
44204;SDS011;30163;42.698;23.344;2023-08-06T04:46:21;15.18;;;9.90;;
44204;SDS011;30163;42.698;23.344;2023-08-06T04:48:47;14.02;;;9.52;;
44204;SDS011;30163;42.698;23.344;2023-08-06T04:51:12;18.90;;;11.00;;
44204;SDS011;30163;42.698;23.344;2023-08-06T04:53:38;20.58;;;9.73;;
44204;SDS011;30163;42.698;23.344;2023-08-06T04:56:03;22.45;;;10.10;;
44204;SDS011;30163;42.698;23.344;2023-08-06T04:58:29;17.17;;;11.15;;
44204;SDS011;30163;42.698;23.344;2023-08-06T05:00:54;16.58;;;11.07;;
44204;SDS011;30163;42.698;23.344;2023-08-06T05:03:20;15.35;;;10.60;;
44204;SDS011;30163;42.698;23.344;2023-08-06T05:05:45;12.05;;;7.97;;
44204;SDS011;30163;42.698;23.344;2023-08-06T05:08:13;10.48;;;7.70;;
44204;SDS011;30163;42.698;23.344;2023-08-06T05:10:42;13.93;;;6.90;;
44204;SDS011;30163;42.698;23.344;2023-08-06T05:13:10;10.27;;;6.22;;
44204;SDS011;30163;42.698;23.344;2023-08-06T05:15:36;13.40;;;5.78;;
44204;SDS011;30163;42.698;23.344;2023-08-06T05:18:01;9.55;;;5.30;;
44204;SDS011;30163;42.698;23.344;2023-08-06T05:20:26;14.98;;;5.75;;
44204;SDS011;30163;42.698;23.344;2023-08-06T05:22:52;11.70;;;5.03;;
44204;SDS011;30163;42.698;23.344;2023-08-06T05:25:17;11.52;;;6.07;;
44204;SDS011;30163;42.698;23.344;2023-08-06T05:27:43;9.70;;;5.30;;
44204;SDS011;30163;42.698;23.344;2023-08-06T05:30:09;15.75;;;6.28;;
44204;SDS011;30163;42.698;23.344;2023-08-06T05:32:35;13.23;;;5.95;;
44204;SDS011;30163;42.698;23.344;2023-08-06T05:35:00;9.20;;;6.03;;
44204;SDS011;30163;42.698;23.344;2023-08-06T05:37:26;12.60;;;6.75;;
44204;SDS011;30163;42.698;23.344;2023-08-06T05:39:51;16.23;;;6.13;;
44204;SDS011;30163;42.698;23.344;2023-08-06T05:42:17;10.50;;;5.80;;
44204;SDS011;30163;42.698;23.344;2023-08-06T05:44:42;10.88;;;6.25;;
44204;SDS011;30163;42.698;23.344;2023-08-06T05:47:07;18.02;;;6.40;;
44204;SDS011;30163;42.698;23.344;2023-08-06T05:49:33;12.98;;;6.60;;
44204;SDS011;30163;42.698;23.344;2023-08-06T05:51:58;11.95;;;5.95;;
44204;SDS011;30163;42.698;23.344;2023-08-06T05:54:24;13.75;;;6.47;;
44204;SDS011;30163;42.698;23.344;2023-08-06T05:56:49;14.15;;;6.63;;
44204;SDS011;30163;42.698;23.344;2023-08-06T05:59:15;7.68;;;5.00;;
44204;SDS011;30163;42.698;23.344;2023-08-06T06:01:40;10.07;;;5.55;;
44204;SDS011;30163;42.698;23.344;2023-08-06T06:04:06;10.90;;;5.68;;
44204;SDS011;30163;42.698;23.344;2023-08-06T06:06:31;12.60;;;5.60;;
44204;SDS011;30163;42.698;23.344;2023-08-06T06:08:56;7.22;;;4.72;;
44204;SDS011;30163;42.698;23.344;2023-08-06T06:11:22;6.22;;;3.70;;
44204;SDS011;30163;42.698;23.344;2023-08-06T06:13:50;9.20;;;3.03;;
44204;SDS011;30163;42.698;23.344;2023-08-06T06:16:16;5.40;;;3.22;;
44204;SDS011;30163;42.698;23.344;2023-08-06T06:18:41;9.25;;;3.15;;
44204;SDS011;30163;42.698;23.344;2023-08-06T06:21:07;14.55;;;3.75;;
44204;SDS011;30163;42.698;23.344;2023-08-06T06:23:32;6.22;;;3.13;;
44204;SDS011;30163;42.698;23.344;2023-08-06T06:25:57;8.88;;;3.80;;
44204;SDS011;30163;42.698;23.344;2023-08-06T06:28:24;6.57;;;3.65;;
44204;SDS011;30163;42.698;23.344;2023-08-06T06:30:51;10.73;;;3.95;;
44204;SDS011;30163;42.698;23.344;2023-08-06T06:33:16;5.32;;;3.20;;
44204;SDS011;30163;42.698;23.344;2023-08-06T06:35:42;6.35;;;3.10;;
44204;SDS011;30163;42.698;23.344;2023-08-06T06:38:07;8.38;;;3.35;;
44204;SDS011;30163;42.698;23.344;2023-08-06T06:40:32;5.90;;;3.00;;
44204;SDS011;30163;42.698;23.344;2023-08-06T06:42:58;5.60;;;3.15;;
44204;SDS011;30163;42.698;23.344;2023-08-06T06:45:23;5.40;;;3.08;;
44204;SDS011;30163;42.698;23.344;2023-08-06T06:47:49;5.63;;;2.20;;
44204;SDS011;30163;42.698;23.344;2023-08-06T06:50:14;3.90;;;2.60;;
44204;SDS011;30163;42.698;23.344;2023-08-06T06:52:40;8.45;;;3.00;;
44204;SDS011;30163;42.698;23.344;2023-08-06T06:55:05;4.35;;;3.00;;
44204;SDS011;30163;42.698;23.344;2023-08-06T06:57:31;4.63;;;2.97;;
44204;SDS011;30163;42.698;23.344;2023-08-06T06:59:56;7.63;;;2.50;;
44204;SDS011;30163;42.698;23.344;2023-08-06T07:02:21;9.20;;;2.97;;
44204;SDS011;30163;42.698;23.344;2023-08-06T07:04:47;6.47;;;3.05;;
44204;SDS011;30163;42.698;23.344;2023-08-06T07:07:12;5.45;;;3.05;;
44204;SDS011;30163;42.698;23.344;2023-08-06T07:09:38;4.43;;;3.08;;
44204;SDS011;30163;42.698;23.344;2023-08-06T07:12:03;6.90;;;3.22;;
44204;SDS011;30163;42.698;23.344;2023-08-06T07:14:29;6.35;;;3.15;;
44204;SDS011;30163;42.698;23.344;2023-08-06T07:16:54;9.57;;;3.05;;
44204;SDS011;30163;42.698;23.344;2023-08-06T07:19:20;4.68;;;3.22;;
44204;SDS011;30163;42.698;23.344;2023-08-06T07:21:45;10.23;;;4.30;;
44204;SDS011;30163;42.698;23.344;2023-08-06T07:24:11;5.53;;;2.75;;
44204;SDS011;30163;42.698;23.344;2023-08-06T07:26:36;16.27;;;3.60;;
44204;SDS011;30163;42.698;23.344;2023-08-06T07:29:02;6.47;;;3.30;;
44204;SDS011;30163;42.698;23.344;2023-08-06T07:31:28;5.45;;;3.70;;
44204;SDS011;30163;42.698;23.344;2023-08-06T07:33:53;9.07;;;3.17;;
44204;SDS011;30163;42.698;23.344;2023-08-06T07:36:18;8.60;;;3.30;;
44204;SDS011;30163;42.698;23.344;2023-08-06T07:38:45;6.53;;;3.50;;
44204;SDS011;30163;42.698;23.344;2023-08-06T07:41:10;4.63;;;3.55;;
44204;SDS011;30163;42.698;23.344;2023-08-06T07:43:36;4.45;;;3.20;;
44204;SDS011;30163;42.698;23.344;2023-08-06T07:46:01;5.50;;;3.35;;
44204;SDS011;30163;42.698;23.344;2023-08-06T07:48:27;4.50;;;2.90;;
44204;SDS011;30163;42.698;23.344;2023-08-06T07:50:53;12.85;;;3.10;;
44204;SDS011;30163;42.698;23.344;2023-08-06T07:53:22;5.10;;;2.95;;
44204;SDS011;30163;42.698;23.344;2023-08-06T07:55:58;3.13;;;2.50;;
44204;SDS011;30163;42.698;23.344;2023-08-06T07:58:24;14.50;;;3.13;;
44204;SDS011;30163;42.698;23.344;2023-08-06T08:00:50;5.07;;;3.40;;
44204;SDS011;30163;42.698;23.344;2023-08-06T08:03:16;6.78;;;2.92;;
44204;SDS011;30163;42.698;23.344;2023-08-06T08:05:41;4.55;;;2.58;;
44204;SDS011;30163;42.698;23.344;2023-08-06T08:08:07;6.15;;;3.53;;
44204;SDS011;30163;42.698;23.344;2023-08-06T08:10:33;5.30;;;3.13;;
44204;SDS011;30163;42.698;23.344;2023-08-06T08:12:59;7.88;;;3.22;;
44204;SDS011;30163;42.698;23.344;2023-08-06T08:15:25;8.30;;;3.47;;
44204;SDS011;30163;42.698;23.344;2023-08-06T08:17:51;8.20;;;3.33;;
44204;SDS011;30163;42.698;23.344;2023-08-06T08:20:17;5.55;;;3.70;;
44204;SDS011;30163;42.698;23.344;2023-08-06T08:22:43;5.45;;;2.83;;
44204;SDS011;30163;42.698;23.344;2023-08-06T08:25:08;9.27;;;3.15;;
44204;SDS011;30163;42.698;23.344;2023-08-06T08:27:34;6.85;;;3.20;;
44204;SDS011;30163;42.698;23.344;2023-08-06T08:29:59;4.78;;;3.72;;
44204;SDS011;30163;42.698;23.344;2023-08-06T08:32:25;4.93;;;3.20;;
44204;SDS011;30163;42.698;23.344;2023-08-06T08:34:50;6.90;;;3.72;;
44204;SDS011;30163;42.698;23.344;2023-08-06T08:37:16;5.43;;;3.53;;
44204;SDS011;30163;42.698;23.344;2023-08-06T08:39:41;7.00;;;3.20;;
44204;SDS011;30163;42.698;23.344;2023-08-06T08:42:06;10.25;;;3.50;;
44204;SDS011;30163;42.698;23.344;2023-08-06T08:44:32;5.32;;;3.50;;
44204;SDS011;30163;42.698;23.344;2023-08-06T08:46:59;12.73;;;3.50;;
44204;SDS011;30163;42.698;23.344;2023-08-06T08:49:26;4.53;;;3.20;;
44204;SDS011;30163;42.698;23.344;2023-08-06T08:51:52;4.38;;;3.50;;
44204;SDS011;30163;42.698;23.344;2023-08-06T08:54:18;5.45;;;3.30;;
44204;SDS011;30163;42.698;23.344;2023-08-06T08:56:45;4.55;;;2.67;;
44204;SDS011;30163;42.698;23.344;2023-08-06T08:59:10;8.05;;;3.97;;
44204;SDS011;30163;42.698;23.344;2023-08-06T09:01:36;4.38;;;3.35;;
44204;SDS011;30163;42.698;23.344;2023-08-06T09:04:02;6.50;;;3.38;;
44204;SDS011;30163;42.698;23.344;2023-08-06T09:06:28;7.50;;;3.63;;
44204;SDS011;30163;42.698;23.344;2023-08-06T09:09:06;5.63;;;3.55;;
44204;SDS011;30163;42.698;23.344;2023-08-06T09:11:35;6.65;;;4.47;;
44204;SDS011;30163;42.698;23.344;2023-08-06T09:14:08;5.30;;;4.00;;
44204;SDS011;30163;42.698;23.344;2023-08-06T09:16:37;4.88;;;3.28;;
44204;SDS011;30163;42.698;23.344;2023-08-06T09:19:09;6.78;;;3.38;;
44204;SDS011;30163;42.698;23.344;2023-08-06T09:21:37;7.45;;;3.88;;
44204;SDS011;30163;42.698;23.344;2023-08-06T09:24:10;4.95;;;4.10;;
44204;SDS011;30163;42.698;23.344;2023-08-06T09:26:42;6.55;;;3.08;;
44204;SDS011;30163;42.698;23.344;2023-08-06T09:29:09;4.40;;;2.97;;
44204;SDS011;30163;42.698;23.344;2023-08-06T09:31:43;7.10;;;3.42;;
44204;SDS011;30163;42.698;23.344;2023-08-06T09:34:10;7.93;;;3.38;;
44204;SDS011;30163;42.698;23.344;2023-08-06T09:36:50;4.53;;;2.88;;
44204;SDS011;30163;42.698;23.344;2023-08-06T09:39:21;4.82;;;3.47;;
44204;SDS011;30163;42.698;23.344;2023-08-06T09:41:52;6.57;;;2.88;;
44204;SDS011;30163;42.698;23.344;2023-08-06T09:44:22;7.90;;;3.65;;
44204;SDS011;30163;42.698;23.344;2023-08-06T09:46:55;5.90;;;3.40;;
44204;SDS011;30163;42.698;23.344;2023-08-06T09:52:02;4.70;;;3.28;;
44204;SDS011;30163;42.698;23.344;2023-08-06T09:54:27;6.30;;;2.80;;
44204;SDS011;30163;42.698;23.344;2023-08-06T09:56:54;3.97;;;3.03;;
44204;SDS011;30163;42.698;23.344;2023-08-06T09:59:20;5.75;;;3.15;;
44204;SDS011;30163;42.698;23.344;2023-08-06T10:01:46;4.10;;;3.10;;
44204;SDS011;30163;42.698;23.344;2023-08-06T10:04:12;6.95;;;3.08;;
44204;SDS011;30163;42.698;23.344;2023-08-06T10:06:41;4.07;;;2.65;;
44204;SDS011;30163;42.698;23.344;2023-08-06T10:09:07;6.18;;;2.88;;
44204;SDS011;30163;42.698;23.344;2023-08-06T10:11:33;5.03;;;2.53;;
44204;SDS011;30163;42.698;23.344;2023-08-06T10:14:10;7.07;;;2.80;;
44204;SDS011;30163;42.698;23.344;2023-08-06T10:16:39;5.03;;;2.70;;
44204;SDS011;30163;42.698;23.344;2023-08-06T10:19:05;7.60;;;3.30;;
44204;SDS011;30163;42.698;23.344;2023-08-06T10:21:32;4.50;;;2.85;;
44204;SDS011;30163;42.698;23.344;2023-08-06T10:23:58;4.32;;;2.78;;
44204;SDS011;30163;42.698;23.344;2023-08-06T10:26:29;6.50;;;3.00;;
44204;SDS011;30163;42.698;23.344;2023-08-06T10:28:55;3.38;;;2.63;;
44204;SDS011;30163;42.698;23.344;2023-08-06T10:34:48;3.75;;;2.55;;
44204;SDS011;30163;42.698;23.344;2023-08-06T10:37:37;4.13;;;2.72;;
44204;SDS011;30163;42.698;23.344;2023-08-06T10:40:03;3.53;;;2.38;;
44204;SDS011;30163;42.698;23.344;2023-08-06T10:42:30;6.15;;;2.80;;
44204;SDS011;30163;42.698;23.344;2023-08-06T10:45:11;5.28;;;2.92;;
44204;SDS011;30163;42.698;23.344;2023-08-06T10:47:41;5.20;;;2.67;;
44204;SDS011;30163;42.698;23.344;2023-08-06T10:50:07;4.53;;;2.95;;
44204;SDS011;30163;42.698;23.344;2023-08-06T10:52:35;4.15;;;3.15;;
44204;SDS011;30163;42.698;23.344;2023-08-06T10:55:00;11.60;;;2.72;;
44204;SDS011;30163;42.698;23.344;2023-08-06T10:57:26;3.88;;;2.90;;
44204;SDS011;30163;42.698;23.344;2023-08-06T10:59:51;7.93;;;3.28;;
44204;SDS011;30163;42.698;23.344;2023-08-06T11:02:17;8.57;;;3.28;;
44204;SDS011;30163;42.698;23.344;2023-08-06T11:04:42;3.95;;;2.92;;
44204;SDS011;30163;42.698;23.344;2023-08-06T11:07:08;4.30;;;3.17;;
44204;SDS011;30163;42.698;23.344;2023-08-06T11:09:33;5.22;;;3.13;;
44204;SDS011;30163;42.698;23.344;2023-08-06T11:11:58;6.00;;;3.08;;
44204;SDS011;30163;42.698;23.344;2023-08-06T11:14:24;8.63;;;3.13;;
44204;SDS011;30163;42.698;23.344;2023-08-06T11:16:50;6.70;;;3.78;;
44204;SDS011;30163;42.698;23.344;2023-08-06T11:19:15;6.20;;;4.18;;
44204;SDS011;30163;42.698;23.344;2023-08-06T11:21:41;6.25;;;4.28;;
44204;SDS011;30163;42.698;23.344;2023-08-06T11:24:09;7.13;;;4.03;;
44204;SDS011;30163;42.698;23.344;2023-08-06T11:26:36;7.00;;;4.32;;
44204;SDS011;30163;42.698;23.344;2023-08-06T11:29:02;10.43;;;5.28;;
44204;SDS011;30163;42.698;23.344;2023-08-06T11:31:28;9.98;;;4.40;;
44204;SDS011;30163;42.698;23.344;2023-08-06T11:33:53;8.70;;;5.18;;
44204;SDS011;30163;42.698;23.344;2023-08-06T11:36:29;7.43;;;3.88;;
44204;SDS011;30163;42.698;23.344;2023-08-06T11:39:02;6.18;;;4.05;;
44204;SDS011;30163;42.698;23.344;2023-08-06T11:41:30;9.35;;;3.75;;
44204;SDS011;30163;42.698;23.344;2023-08-06T11:43:56;5.97;;;4.40;;
44204;SDS011;30163;42.698;23.344;2023-08-06T11:46:21;9.50;;;4.30;;
44204;SDS011;30163;42.698;23.344;2023-08-06T11:48:54;11.73;;;4.00;;
44204;SDS011;30163;42.698;23.344;2023-08-06T11:51:24;7.10;;;4.30;;
44204;SDS011;30163;42.698;23.344;2023-08-06T11:53:59;6.57;;;4.15;;
44204;SDS011;30163;42.698;23.344;2023-08-06T11:56:25;10.30;;;5.00;;
44204;SDS011;30163;42.698;23.344;2023-08-06T11:58:51;6.88;;;3.75;;
44204;SDS011;30163;42.698;23.344;2023-08-06T12:01:17;7.70;;;3.58;;
44204;SDS011;30163;42.698;23.344;2023-08-06T12:03:43;7.78;;;4.40;;
44204;SDS011;30163;42.698;23.344;2023-08-06T12:06:08;7.68;;;4.18;;
44204;SDS011;30163;42.698;23.344;2023-08-06T12:08:34;7.13;;;4.70;;
44204;SDS011;30163;42.698;23.344;2023-08-06T12:10:59;8.50;;;5.03;;
44204;SDS011;30163;42.698;23.344;2023-08-06T12:13:25;8.15;;;4.60;;
44204;SDS011;30163;42.698;23.344;2023-08-06T12:15:50;7.05;;;4.20;;
44204;SDS011;30163;42.698;23.344;2023-08-06T12:18:18;12.68;;;7.00;;
44204;SDS011;30163;42.698;23.344;2023-08-06T12:20:43;7.15;;;4.68;;
44204;SDS011;30163;42.698;23.344;2023-08-06T12:23:09;8.02;;;5.38;;
44204;SDS011;30163;42.698;23.344;2023-08-06T12:25:34;5.72;;;4.85;;
44204;SDS011;30163;42.698;23.344;2023-08-06T12:28:00;5.82;;;4.60;;
44204;SDS011;30163;42.698;23.344;2023-08-06T12:30:25;6.38;;;4.25;;
44204;SDS011;30163;42.698;23.344;2023-08-06T12:32:51;8.27;;;5.70;;
44204;SDS011;30163;42.698;23.344;2023-08-06T12:35:17;9.75;;;5.65;;
44204;SDS011;30163;42.698;23.344;2023-08-06T12:37:42;10.40;;;4.93;;
44204;SDS011;30163;42.698;23.344;2023-08-06T12:40:09;10.02;;;7.45;;
44204;SDS011;30163;42.698;23.344;2023-08-06T12:42:34;10.65;;;8.35;;
44204;SDS011;30163;42.698;23.344;2023-08-06T12:45:00;10.10;;;7.63;;
44204;SDS011;30163;42.698;23.344;2023-08-06T12:47:25;13.68;;;5.45;;
44204;SDS011;30163;42.698;23.344;2023-08-06T12:49:51;7.60;;;5.47;;
44204;SDS011;30163;42.698;23.344;2023-08-06T12:52:16;12.73;;;8.25;;
44204;SDS011;30163;42.698;23.344;2023-08-06T12:54:44;7.88;;;5.22;;
44204;SDS011;30163;42.698;23.344;2023-08-06T12:57:11;10.13;;;5.22;;
44204;SDS011;30163;42.698;23.344;2023-08-06T12:59:37;5.97;;;4.68;;
44204;SDS011;30163;42.698;23.344;2023-08-06T13:02:02;10.43;;;5.25;;
44204;SDS011;30163;42.698;23.344;2023-08-06T13:04:28;13.07;;;6.90;;
44204;SDS011;30163;42.698;23.344;2023-08-06T13:06:53;10.77;;;5.88;;
44204;SDS011;30163;42.698;23.344;2023-08-06T13:09:19;10.70;;;4.63;;
44204;SDS011;30163;42.698;23.344;2023-08-06T13:11:44;5.53;;;4.15;;
44204;SDS011;30163;42.698;23.344;2023-08-06T13:14:11;7.45;;;4.85;;
44204;SDS011;30163;42.698;23.344;2023-08-06T13:16:38;8.48;;;4.65;;
44204;SDS011;30163;42.698;23.344;2023-08-06T13:19:05;14.27;;;5.97;;
44204;SDS011;30163;42.698;23.344;2023-08-06T13:24:01;9.00;;;5.05;;
44204;SDS011;30163;42.698;23.344;2023-08-06T13:26:28;9.68;;;4.78;;
44204;SDS011;30163;42.698;23.344;2023-08-06T13:28:57;11.57;;;4.68;;
44204;SDS011;30163;42.698;23.344;2023-08-06T13:31:23;9.55;;;5.20;;
44204;SDS011;30163;42.698;23.344;2023-08-06T13:33:48;7.43;;;4.85;;
44204;SDS011;30163;42.698;23.344;2023-08-06T13:36:15;6.63;;;4.40;;
44204;SDS011;30163;42.698;23.344;2023-08-06T13:38:43;10.23;;;6.82;;
44204;SDS011;30163;42.698;23.344;2023-08-06T13:41:08;8.63;;;4.75;;
44204;SDS011;30163;42.698;23.344;2023-08-06T13:43:34;6.60;;;3.97;;
44204;SDS011;30163;42.698;23.344;2023-08-06T13:45:59;9.52;;;5.78;;
44204;SDS011;30163;42.698;23.344;2023-08-06T13:48:24;10.15;;;4.97;;
44204;SDS011;30163;42.698;23.344;2023-08-06T13:50:50;8.50;;;4.63;;
44204;SDS011;30163;42.698;23.344;2023-08-06T13:53:15;6.85;;;4.60;;
44204;SDS011;30163;42.698;23.344;2023-08-06T13:55:41;8.65;;;4.47;;
44204;SDS011;30163;42.698;23.344;2023-08-06T13:58:06;10.30;;;4.28;;
44204;SDS011;30163;42.698;23.344;2023-08-06T14:00:32;10.50;;;4.53;;
44204;SDS011;30163;42.698;23.344;2023-08-06T14:02:57;12.52;;;4.32;;
44204;SDS011;30163;42.698;23.344;2023-08-06T14:05:23;10.20;;;4.95;;
44204;SDS011;30163;42.698;23.344;2023-08-06T14:07:48;10.40;;;4.30;;
44204;SDS011;30163;42.698;23.344;2023-08-06T14:10:13;14.32;;;4.80;;
44204;SDS011;30163;42.698;23.344;2023-08-06T14:12:39;8.00;;;4.70;;
44204;SDS011;30163;42.698;23.344;2023-08-06T14:15:05;5.18;;;3.40;;
44204;SDS011;30163;42.698;23.344;2023-08-06T14:17:31;5.85;;;4.35;;
44204;SDS011;30163;42.698;23.344;2023-08-06T14:19:56;7.72;;;4.55;;
44204;SDS011;30163;42.698;23.344;2023-08-06T14:22:22;8.68;;;4.40;;
44204;SDS011;30163;42.698;23.344;2023-08-06T14:24:47;5.97;;;4.57;;
44204;SDS011;30163;42.698;23.344;2023-08-06T14:27:13;18.40;;;4.30;;
44204;SDS011;30163;42.698;23.344;2023-08-06T14:29:38;8.57;;;4.55;;
44204;SDS011;30163;42.698;23.344;2023-08-06T14:32:04;9.13;;;4.13;;
44204;SDS011;30163;42.698;23.344;2023-08-06T14:34:29;6.85;;;4.10;;
44204;SDS011;30163;42.698;23.344;2023-08-06T14:36:55;9.40;;;4.43;;
44204;SDS011;30163;42.698;23.344;2023-08-06T14:39:20;7.40;;;4.90;;
44204;SDS011;30163;42.698;23.344;2023-08-06T14:41:46;7.25;;;4.20;;